createdAt,value
2018-02-07T00:01:16.886Z,90.50
2018-02-07T00:03:44.371Z,90.50
2018-02-07T00:06:11.858Z,90.50
2018-02-07T00:08:39.320Z,90.50
2018-02-07T00:11:06.819Z,90.70
2018-02-07T00:13:34.296Z,90.60
2018-02-07T00:16:01.784Z,91.10
2018-02-07T00:18:29.259Z,91.40
2018-02-07T00:20:56.762Z,91.30
2018-02-07T00:23:24.239Z,91.30
2018-02-07T00:25:51.710Z,91.30
2018-02-07T00:28:19.194Z,91.40
2018-02-07T00:30:47.438Z,91.10
2018-02-07T00:33:14.909Z,91.00
2018-02-07T00:35:42.395Z,90.90
2018-02-07T00:38:09.875Z,90.90
2018-02-07T00:40:37.343Z,91.00
2018-02-07T00:43:04.822Z,90.70
2018-02-07T00:45:32.298Z,90.80
2018-02-07T00:47:59.776Z,91.00
2018-02-07T00:50:28.021Z,90.80
2018-02-07T00:52:55.496Z,90.80
2018-02-07T00:55:22.963Z,90.70
2018-02-07T00:57:50.440Z,90.60
2018-02-07T01:00:17.917Z,90.70
2018-02-07T01:02:45.411Z,90.90
2018-02-07T01:05:13.649Z,91.10
2018-02-07T01:07:41.134Z,91.10
2018-02-07T01:10:08.607Z,91.00
2018-02-07T01:12:36.083Z,91.00
2018-02-07T01:15:03.565Z,91.00
2018-02-07T01:17:31.054Z,91.00
2018-02-07T01:19:59.294Z,90.70
2018-02-07T01:22:26.771Z,90.70
2018-02-07T01:24:54.240Z,90.60
2018-02-07T01:27:21.740Z,90.60
2018-02-07T01:29:49.217Z,90.80
2018-02-07T01:32:17.466Z,90.80
2018-02-07T01:34:44.945Z,90.50
2018-02-07T01:37:12.431Z,90.60
2018-02-07T01:39:40.672Z,90.20
2018-02-07T01:42:08.154Z,90.20
2018-02-07T01:44:35.643Z,90.30
2018-02-07T01:47:03.127Z,90.30
2018-02-07T01:49:30.612Z,90.30
2018-02-07T01:51:58.852Z,90.30
2018-02-07T01:54:26.325Z,90.30
2018-02-07T01:56:53.803Z,90.30
2018-02-07T01:59:21.290Z,90.30
2018-02-07T02:01:48.763Z,90.30
2018-02-07T02:04:16.246Z,90.20
2018-02-07T02:06:43.718Z,90.30
2018-02-07T02:09:11.197Z,90.40
2018-02-07T02:11:39.436Z,90.30
2018-02-07T02:14:06.922Z,90.30
2018-02-07T02:16:34.399Z,90.30
2018-02-07T02:19:01.879Z,90.50
2018-02-07T02:21:29.358Z,90.40
2018-02-07T02:23:56.882Z,90.30
2018-02-07T02:26:24.346Z,90.20
2018-02-07T02:28:51.827Z,90.70
2018-02-07T02:31:19.298Z,90.60
2018-02-07T02:33:46.788Z,90.40
2018-02-07T02:36:26.133Z,90.40
2018-02-07T02:38:53.626Z,90.40
2018-02-07T02:41:21.107Z,90.30
2018-02-07T02:43:49.399Z,90.00
2018-02-07T02:46:16.875Z,90.00
2018-02-07T02:48:45.123Z,90.40
2018-02-07T02:51:12.606Z,90.30
2018-02-07T02:53:40.084Z,90.20
2018-02-07T02:56:07.574Z,90.10
2018-02-07T02:58:35.813Z,90.10
2018-02-07T03:01:03.291Z,90.10
2018-02-07T03:03:30.767Z,89.90
2018-02-07T03:05:58.245Z,90.00
2018-02-07T03:08:25.724Z,90.40
2018-02-07T03:10:53.215Z,90.40
2018-02-07T03:13:20.699Z,90.50
2018-02-07T03:15:48.181Z,90.30
2018-02-07T03:18:15.646Z,90.30
2018-02-07T03:20:43.126Z,90.80
2018-02-07T03:23:10.604Z,91.30
2018-02-07T03:25:38.085Z,91.20
2018-02-07T03:28:05.559Z,90.90
2018-02-07T03:30:33.046Z,90.60
2018-02-07T03:33:00.514Z,90.60
2018-02-07T03:35:27.991Z,90.70
2018-02-07T03:37:55.470Z,90.70
2018-02-07T03:40:23.724Z,90.60
2018-02-07T03:42:51.187Z,90.60
2018-02-07T03:45:18.686Z,90.30
2018-02-07T03:47:46.162Z,90.10
2018-02-07T03:50:14.410Z,90.20
2018-02-07T03:52:41.892Z,90.20
2018-02-07T03:55:09.373Z,90.50
2018-02-07T03:57:36.850Z,90.80
2018-02-07T04:00:04.331Z,90.30
2018-02-07T04:02:31.816Z,90.40
2018-02-07T04:04:59.282Z,90.40
2018-02-07T04:07:27.558Z,90.30
2018-02-07T04:09:55.036Z,90.30
2018-02-07T04:12:22.515Z,90.20
2018-02-07T04:14:50.761Z,90.30
2018-02-07T04:17:18.246Z,90.30
2018-02-07T04:19:45.717Z,90.30
2018-02-07T04:22:13.202Z,90.30
2018-02-07T04:24:40.666Z,90.10
2018-02-07T04:27:08.152Z,90.50
2018-02-07T04:29:36.392Z,90.20
2018-02-07T04:32:03.871Z,90.20
2018-02-07T04:34:31.350Z,89.80
2018-02-07T04:36:58.826Z,89.70
2018-02-07T04:39:26.303Z,89.20
2018-02-07T04:41:53.789Z,89.60
2018-02-07T04:44:21.263Z,90.10
2018-02-07T04:46:48.752Z,89.20
2018-02-07T04:49:16.231Z,88.70
2018-02-07T04:51:43.704Z,88.60
2018-02-07T04:54:11.175Z,88.70
2018-02-07T04:56:38.657Z,88.60
2018-02-07T04:59:06.131Z,89.20
2018-02-07T05:01:33.603Z,88.80
2018-02-07T05:04:01.090Z,88.70
2018-02-07T05:06:28.559Z,89.00
2018-02-07T05:08:56.039Z,89.70
2018-02-07T05:11:23.510Z,89.70
2018-02-07T05:13:50.982Z,90.10
2018-02-07T05:16:18.458Z,90.30
2018-02-07T05:18:45.939Z,90.00
2018-02-07T05:21:14.167Z,88.90
2018-02-07T05:23:41.646Z,88.70
2018-02-07T05:26:09.115Z,89.40
2018-02-07T05:28:36.602Z,89.40
2018-02-07T05:31:04.078Z,89.30
2018-02-07T05:33:31.554Z,89.40
2018-02-07T05:35:59.042Z,89.20
2018-02-07T05:38:26.520Z,88.60
2018-02-07T05:40:54.750Z,89.40
2018-02-07T05:43:22.247Z,89.40
2018-02-07T05:45:49.716Z,89.80
2018-02-07T05:48:17.202Z,90.00
2018-02-07T05:50:44.693Z,90.20
2018-02-07T05:53:12.997Z,90.20
2018-02-07T05:55:40.544Z,90.10
2018-02-07T05:58:08.836Z,90.20
2018-02-07T06:00:37.129Z,90.30
2018-02-07T06:03:05.465Z,90.50
2018-02-07T06:05:33.021Z,90.50
2018-02-07T06:08:00.577Z,90.40
2018-02-07T06:10:28.157Z,90.40
2018-02-07T06:12:55.683Z,90.50
2018-02-07T06:15:23.154Z,90.60
2018-02-07T06:17:50.630Z,90.60
2018-02-07T06:20:18.116Z,90.90
2018-02-07T06:22:46.356Z,91.00
2018-02-07T06:25:13.839Z,90.90
2018-02-07T06:27:41.318Z,90.90
2018-02-07T06:30:08.794Z,90.90
2018-02-07T06:32:36.269Z,90.90
2018-02-07T06:35:03.755Z,91.00
2018-02-07T06:37:31.219Z,91.00
2018-02-07T06:39:59.474Z,91.10
2018-02-07T06:42:26.951Z,91.10
2018-02-07T06:44:54.427Z,91.10
2018-02-07T06:47:21.900Z,90.90
2018-02-07T06:49:49.374Z,90.80
2018-02-07T06:52:16.870Z,90.90
2018-02-07T06:54:44.397Z,90.90
2018-02-07T06:57:11.862Z,90.80
2018-02-07T06:59:39.347Z,91.00
2018-02-07T07:02:06.822Z,91.10
2018-02-07T07:04:34.300Z,91.10
2018-02-07T07:07:01.771Z,91.10
2018-02-07T07:09:30.013Z,91.30
2018-02-07T07:11:57.494Z,91.20
2018-02-07T07:14:24.978Z,91.10
2018-02-07T07:16:52.479Z,91.10
2018-02-07T07:19:20.711Z,91.00
2018-02-07T07:21:48.191Z,91.00
2018-02-07T07:24:15.664Z,91.00
2018-02-07T07:26:43.154Z,91.00
2018-02-07T07:29:10.619Z,91.00
2018-02-07T07:31:38.157Z,91.00
2018-02-07T07:34:05.577Z,91.00
2018-02-07T07:36:33.067Z,91.20
2018-02-07T07:39:01.310Z,90.90
2018-02-07T07:41:28.794Z,90.80
2018-02-07T07:43:56.276Z,90.80
2018-02-07T07:46:23.781Z,91.00
2018-02-07T07:48:51.257Z,90.80
2018-02-07T07:51:18.744Z,90.80
2018-02-07T07:53:46.210Z,90.60
2018-02-07T07:56:13.699Z,90.60
2018-02-07T07:58:41.167Z,90.90
2018-02-07T08:01:08.652Z,90.70
2018-02-07T08:03:36.131Z,90.60
2018-02-07T08:06:03.611Z,90.80
2018-02-07T08:08:31.870Z,90.60
2018-02-07T08:10:59.397Z,90.60
2018-02-07T08:13:26.839Z,90.60
2018-02-07T08:15:54.316Z,90.60
2018-02-07T08:18:21.790Z,90.50
2018-02-07T08:20:50.074Z,90.70
2018-02-07T08:23:18.321Z,90.70
2018-02-07T08:25:45.791Z,90.70
2018-02-07T08:28:13.274Z,90.80
2018-02-07T08:30:40.759Z,90.70
2018-02-07T08:33:08.268Z,90.70
2018-02-07T08:35:35.733Z,90.50
2018-02-07T08:38:03.215Z,90.50
2018-02-07T08:40:30.687Z,90.80
2018-02-07T08:42:58.195Z,90.60
2018-02-07T08:45:25.662Z,90.80
2018-02-07T08:47:53.147Z,90.80
2018-02-07T08:50:20.622Z,90.20
2018-02-07T08:52:48.098Z,89.90
2018-02-07T08:55:16.334Z,90.60
2018-02-07T08:57:43.824Z,90.50
2018-02-07T09:00:11.304Z,90.70
2018-02-07T09:02:38.791Z,91.00
2018-02-07T09:05:06.254Z,89.70
2018-02-07T09:07:33.738Z,90.40
2018-02-07T09:10:01.223Z,90.00
2018-02-07T09:12:29.464Z,89.30
2018-02-07T09:14:56.943Z,89.20
2018-02-07T09:17:24.423Z,90.00
2018-02-07T09:19:51.891Z,89.80
2018-02-07T09:22:19.389Z,88.90
2018-02-07T09:24:47.622Z,89.40
2018-02-07T09:27:15.098Z,89.40
2018-02-07T09:29:42.579Z,90.00
2018-02-07T09:32:10.058Z,90.10
2018-02-07T09:34:37.536Z,90.20
2018-02-07T09:37:05.035Z,88.70
2018-02-07T09:39:32.509Z,88.30
2018-02-07T09:41:59.991Z,90.10
2018-02-07T09:44:27.479Z,88.70
2018-02-07T09:46:54.955Z,88.30
2018-02-07T09:49:22.442Z,90.00
2018-02-07T09:51:49.918Z,87.60
2018-02-07T09:54:17.413Z,89.20
2018-02-07T09:56:45.650Z,88.20
2018-02-07T09:59:13.126Z,88.10
2018-02-07T10:01:40.603Z,88.00
2018-02-07T10:04:08.083Z,88.20
2018-02-07T10:06:35.551Z,87.30
2018-02-07T10:09:03.036Z,87.90
2018-02-07T10:11:30.514Z,88.20
2018-02-07T10:13:57.984Z,88.60
2018-02-07T10:16:26.227Z,87.50
2018-02-07T10:18:53.702Z,87.50
2018-02-07T10:21:21.175Z,85.60
2018-02-07T10:23:48.638Z,87.20
2018-02-07T10:26:16.113Z,87.40
2018-02-07T10:28:43.595Z,86.10
2018-02-07T10:31:11.062Z,85.70
2018-02-07T10:33:38.543Z,86.40
2018-02-07T10:36:06.006Z,85.00
2018-02-07T10:38:33.487Z,85.60
2018-02-07T10:41:00.965Z,87.80
2018-02-07T10:43:28.436Z,88.00
2018-02-07T10:45:55.919Z,86.70
2018-02-07T10:48:24.159Z,83.80
2018-02-07T10:50:51.682Z,83.70
2018-02-07T10:53:19.116Z,84.20
2018-02-07T10:55:46.588Z,84.40
2018-02-07T10:58:14.063Z,84.80
2018-02-07T11:00:41.535Z,85.70
2018-02-07T11:03:09.008Z,84.00
2018-02-07T11:05:36.483Z,83.20
2018-02-07T11:08:03.951Z,83.50
2018-02-07T11:10:31.438Z,83.60
2018-02-07T11:12:59.676Z,83.10
2018-02-07T11:15:27.147Z,83.10
2018-02-07T11:17:54.639Z,83.10
2018-02-07T11:20:22.114Z,81.00
2018-02-07T11:22:49.589Z,80.80
2018-02-07T11:25:17.068Z,79.20
2018-02-07T11:27:45.299Z,79.40
2018-02-07T11:30:12.810Z,78.60
2018-02-07T11:32:40.279Z,78.30
2018-02-07T11:35:07.752Z,77.10
2018-02-07T11:37:35.220Z,76.10
2018-02-07T11:40:02.696Z,76.70
2018-02-07T11:42:30.158Z,75.80
2018-02-07T11:44:58.399Z,75.50
2018-02-07T11:47:25.865Z,75.40
2018-02-07T11:49:53.343Z,75.60
2018-02-07T11:52:20.812Z,75.20
2018-02-07T11:54:48.274Z,74.40
2018-02-07T11:57:15.743Z,74.30
2018-02-07T11:59:43.207Z,74.30
2018-02-07T12:02:10.691Z,74.90
2018-02-07T12:04:38.197Z,74.60
2018-02-07T12:07:05.626Z,72.90
2018-02-07T12:09:33.085Z,73.40
2018-02-07T12:12:00.562Z,71.70
2018-02-07T12:14:28.027Z,71.20
2018-02-07T12:16:55.518Z,71.20
2018-02-07T12:19:22.982Z,69.80
2018-02-07T12:21:50.460Z,69.00
2018-02-07T12:24:17.926Z,69.40
2018-02-07T12:26:45.391Z,70.30
2018-02-07T12:29:12.854Z,70.70
2018-02-07T12:31:40.326Z,71.10
2018-02-07T12:34:07.799Z,70.80
2018-02-07T12:36:35.263Z,70.80
2018-02-07T12:39:02.720Z,71.00
2018-02-07T12:41:30.194Z,70.60
2018-02-07T12:43:57.663Z,69.60
2018-02-07T12:46:25.131Z,67.70
2018-02-07T12:48:52.616Z,66.90
2018-02-07T12:51:20.077Z,67.00
2018-02-07T12:53:47.538Z,67.40
2018-02-07T12:56:15.024Z,68.70
2018-02-07T12:58:42.483Z,68.30
2018-02-07T13:01:09.944Z,68.20
2018-02-07T13:03:38.174Z,67.00
2018-02-07T13:06:05.648Z,67.00
2018-02-07T13:08:33.110Z,65.90
2018-02-07T13:11:00.577Z,66.00
2018-02-07T13:13:28.049Z,65.90
2018-02-07T13:15:55.520Z,66.80
2018-02-07T13:18:22.990Z,65.80
2018-02-07T13:20:50.470Z,64.90
2018-02-07T13:23:17.931Z,66.00
2018-02-07T13:25:45.395Z,66.40
2018-02-07T13:28:12.866Z,66.70
2018-02-07T13:30:40.331Z,66.60
2018-02-07T13:33:07.807Z,67.00
2018-02-07T13:35:35.279Z,67.80
2018-02-07T13:38:02.760Z,67.70
2018-02-07T13:40:30.233Z,67.50
2018-02-07T13:42:57.714Z,67.10
2018-02-07T13:45:25.178Z,64.70
2018-02-07T13:47:52.668Z,65.70
2018-02-07T13:50:20.128Z,65.90
2018-02-07T13:52:47.611Z,65.80
2018-02-07T13:55:15.074Z,65.90
2018-02-07T13:57:42.550Z,65.80
2018-02-07T14:00:10.799Z,63.80
2018-02-07T14:02:38.280Z,63.20
2018-02-07T14:05:05.742Z,63.30
2018-02-07T14:07:33.226Z,64.30
2018-02-07T14:10:00.722Z,63.70
2018-02-07T14:12:28.206Z,63.30
2018-02-07T14:14:55.700Z,62.90
2018-02-07T14:17:23.162Z,60.70
2018-02-07T14:19:50.648Z,61.50
2018-02-07T14:22:18.125Z,62.40
2018-02-07T14:24:45.601Z,59.90
2018-02-07T14:27:13.068Z,60.70
2018-02-07T14:29:40.538Z,62.30
2018-02-07T14:32:08.010Z,62.80
2018-02-07T14:34:35.480Z,63.20
2018-02-07T14:37:02.944Z,64.10
2018-02-07T14:39:30.418Z,64.90
2018-02-07T14:41:57.894Z,64.30
2018-02-07T14:44:25.380Z,63.40
2018-02-07T14:46:52.846Z,63.60
2018-02-07T14:49:20.324Z,63.70
2018-02-07T14:51:47.792Z,64.00
2018-02-07T14:54:15.293Z,63.50
2018-02-07T14:56:43.524Z,63.00
2018-02-07T14:59:11.002Z,63.00
2018-02-07T15:01:38.484Z,63.90
2018-02-07T15:04:05.951Z,65.20
2018-02-07T15:06:33.411Z,65.00
2018-02-07T15:09:00.913Z,65.00
2018-02-07T15:11:28.392Z,65.30
2018-02-07T15:13:55.854Z,64.20
2018-02-07T15:16:23.335Z,64.50
2018-02-07T15:18:50.799Z,64.60
2018-02-07T15:21:18.268Z,65.40
2018-02-07T15:23:45.828Z,65.50
2018-02-07T15:26:13.303Z,66.20
2018-02-07T15:28:40.781Z,66.60
2018-02-07T15:31:08.259Z,66.80
2018-02-07T15:33:35.725Z,66.50
2018-02-07T15:36:03.194Z,66.60
2018-02-07T15:38:30.665Z,67.30
2018-02-07T15:40:58.142Z,68.40
2018-02-07T15:43:26.378Z,69.00
2018-02-07T15:45:53.882Z,69.00
2018-02-07T15:48:21.349Z,69.00
2018-02-07T15:50:48.823Z,69.30
2018-02-07T15:53:16.295Z,69.60
2018-02-07T15:55:43.775Z,69.90
2018-02-07T15:58:11.244Z,70.00
2018-02-07T16:00:38.723Z,70.50
2018-02-07T16:03:06.952Z,71.00
2018-02-07T16:05:35.295Z,70.90
2018-02-07T16:08:02.775Z,70.90
2018-02-07T16:10:31.043Z,71.60
2018-02-07T16:12:59.569Z,71.60
2018-02-07T16:15:27.561Z,72.00
2018-02-07T16:17:55.232Z,72.30
2018-02-07T16:20:22.884Z,72.30
2018-02-07T16:22:51.441Z,72.60
2018-02-07T16:25:18.959Z,72.60
2018-02-07T16:27:47.315Z,73.20
2018-02-07T16:30:14.968Z,73.20
2018-02-07T16:32:42.517Z,73.20
2018-02-07T16:35:10.089Z,73.20
2018-02-07T16:37:37.658Z,72.70
2018-02-07T16:40:05.184Z,73.20
2018-02-07T16:42:32.963Z,73.40
2018-02-07T16:45:00.649Z,73.70
2018-02-07T16:47:28.984Z,73.90
2018-02-07T16:49:56.524Z,73.90
2018-02-07T16:52:24.853Z,74.20
2018-02-07T16:54:52.402Z,74.20
2018-02-07T16:57:20.001Z,73.70
2018-02-07T16:59:47.568Z,74.10
2018-02-07T17:02:15.139Z,74.00
2018-02-07T17:04:42.701Z,74.20
2018-02-07T17:07:10.272Z,74.20
2018-02-07T17:09:37.886Z,74.10
2018-02-07T17:12:05.455Z,73.90
2018-02-07T17:14:32.975Z,74.60
2018-02-07T17:17:00.597Z,73.80
2018-02-07T17:19:28.237Z,73.50
2018-02-07T17:21:55.857Z,74.00
2018-02-07T17:24:23.413Z,74.40
2018-02-07T17:26:50.970Z,74.80
2018-02-07T17:29:18.513Z,74.80
2018-02-07T17:31:46.264Z,74.60
2018-02-07T17:34:14.593Z,74.70
2018-02-07T17:36:42.239Z,74.70
2018-02-07T17:39:10.589Z,74.80
2018-02-07T17:41:38.104Z,74.80
2018-02-07T17:44:05.635Z,75.00
2018-02-07T17:46:33.163Z,75.10
2018-02-07T17:49:00.688Z,75.50
2018-02-07T17:51:28.238Z,75.60
2018-02-07T17:53:55.763Z,75.80
2018-02-07T17:56:24.088Z,76.50
2018-02-07T17:58:51.665Z,76.40
2018-02-07T18:01:19.224Z,76.60
2018-02-07T18:03:46.788Z,76.30
2018-02-07T18:06:14.374Z,76.50
2018-02-07T18:08:41.910Z,76.50
2018-02-07T18:11:10.218Z,76.40
2018-02-07T18:13:37.755Z,76.30
2018-02-07T18:16:06.047Z,75.80
2018-02-07T18:18:33.605Z,75.70
2018-02-07T18:21:01.152Z,75.80
2018-02-07T18:23:28.704Z,76.10
2018-02-07T18:25:56.330Z,76.60
2018-02-07T18:28:24.661Z,76.90
2018-02-07T18:30:52.237Z,76.80
2018-02-07T18:33:19.836Z,77.10
2018-02-07T18:35:47.414Z,76.60
2018-02-07T18:38:14.956Z,76.60
2018-02-07T18:40:42.533Z,76.40
2018-02-07T18:43:10.118Z,76.60
2018-02-07T18:45:37.673Z,76.80
2018-02-07T18:48:05.325Z,77.20
2018-02-07T18:50:33.610Z,77.50
2018-02-07T18:53:01.908Z,77.40
2018-02-07T18:55:29.509Z,77.40
2018-02-07T18:57:57.124Z,77.40
2018-02-07T19:00:24.690Z,77.20
2018-02-07T19:02:52.226Z,76.80
2018-02-07T19:05:19.789Z,77.20
2018-02-07T19:07:47.353Z,77.50
2018-02-07T19:10:14.908Z,77.10
2018-02-07T19:12:42.451Z,77.40
2018-02-07T19:15:10.037Z,77.70
2018-02-07T19:17:38.339Z,77.90
2018-02-07T19:20:06.632Z,77.90
2018-02-07T19:22:34.215Z,77.90
2018-02-07T19:25:01.856Z,78.10
2018-02-07T19:27:29.482Z,78.30
2018-02-07T19:29:57.055Z,77.90
2018-02-07T19:32:24.576Z,77.90
2018-02-07T19:34:52.117Z,78.10
2018-02-07T19:37:19.614Z,78.40
2018-02-07T19:39:47.145Z,78.20
2018-02-07T19:42:14.706Z,78.40
2018-02-07T19:44:42.268Z,78.50
2018-02-07T19:47:09.817Z,78.30
2018-02-07T19:49:39.127Z,78.30
2018-02-07T19:52:07.480Z,78.60
2018-02-07T19:54:35.061Z,78.50
2018-02-07T19:57:02.598Z,78.80
2018-02-07T19:59:30.134Z,78.40
2018-02-07T20:01:58.531Z,78.50
2018-02-07T20:04:26.834Z,78.70
2018-02-07T20:06:54.442Z,78.70
2018-02-07T20:09:22.009Z,78.90
2018-02-07T20:11:49.668Z,79.10
2018-02-07T20:14:17.189Z,79.10
2018-02-07T20:16:44.746Z,79.50
2018-02-07T20:19:12.424Z,80.50
2018-02-07T20:21:40.036Z,79.80
2018-02-07T20:24:08.329Z,79.70
2018-02-07T20:26:35.876Z,79.70
2018-02-07T20:29:04.170Z,79.70
2018-02-07T20:31:31.746Z,79.70
2018-02-07T20:33:59.285Z,79.70
2018-02-07T20:36:26.891Z,80.00
2018-02-07T20:38:55.416Z,80.40
2018-02-07T20:41:22.992Z,80.40
2018-02-07T20:43:50.557Z,80.50
2018-02-07T20:46:18.213Z,80.60
2018-02-07T20:48:45.775Z,80.70
2018-02-07T20:51:14.056Z,80.50
2018-02-07T20:53:41.617Z,80.60
2018-02-07T20:56:09.165Z,80.80
2018-02-07T20:58:36.748Z,80.80
2018-02-07T21:01:12.453Z,80.70
2018-02-07T21:03:40.731Z,80.80
2018-02-07T21:06:09.129Z,81.60
2018-02-07T21:08:37.528Z,81.00
2018-02-07T21:11:05.080Z,81.00
2018-02-07T21:13:32.643Z,81.20
2018-02-07T21:16:00.252Z,81.30
2018-02-07T21:18:28.581Z,81.40
2018-02-07T21:20:56.134Z,81.40
2018-02-07T21:23:23.709Z,81.50
2018-02-07T21:25:51.267Z,81.70
2018-02-07T21:28:18.812Z,81.70
2018-02-07T21:30:47.129Z,81.80
2018-02-07T21:33:14.764Z,81.70
2018-02-07T21:35:42.237Z,81.80
2018-02-07T21:38:09.769Z,81.70
2018-02-07T21:40:37.296Z,81.30
2018-02-07T21:43:05.598Z,81.10
2018-02-07T21:45:33.208Z,80.90
2018-02-07T21:48:00.808Z,80.80
2018-02-07T21:50:29.060Z,80.50
2018-02-07T21:52:56.715Z,80.60
2018-02-07T21:55:24.344Z,80.60
2018-02-07T21:57:51.905Z,80.50
2018-02-07T22:00:19.459Z,80.30
2018-02-07T22:02:48.030Z,80.50
2018-02-07T22:05:16.271Z,80.70
2018-02-07T22:07:43.839Z,80.70
2018-02-07T22:10:11.359Z,80.60
2018-02-07T22:12:38.943Z,80.60
2018-02-07T22:15:06.451Z,80.40
2018-02-07T22:17:34.015Z,80.50
2018-02-07T22:20:01.600Z,80.50
2018-02-07T22:22:29.112Z,80.70
2018-02-07T22:24:56.659Z,80.70
2018-02-07T22:27:25.348Z,81.00
2018-02-07T22:29:52.916Z,81.00
2018-02-07T22:32:20.487Z,81.10
2018-02-07T22:34:48.012Z,81.10
2018-02-07T22:37:15.619Z,81.10
2018-02-07T22:39:43.166Z,81.00
2018-02-07T22:42:10.795Z,80.90
2018-02-07T22:44:39.055Z,80.50
2018-02-07T22:47:06.592Z,81.00
2018-02-07T22:49:34.128Z,81.10
2018-02-07T22:52:02.476Z,80.30
2018-02-07T22:54:29.991Z,80.20
2018-02-07T22:56:58.335Z,80.60
2018-02-07T22:59:25.903Z,80.50
2018-02-07T23:01:53.519Z,80.50
2018-02-07T23:04:21.148Z,80.50
2018-02-07T23:06:48.715Z,80.50
2018-02-07T23:09:16.347Z,80.60
2018-02-07T23:11:44.746Z,80.90
2018-02-07T23:14:13.079Z,80.50
2018-02-07T23:16:40.685Z,80.50
2018-02-07T23:19:08.246Z,80.70
2018-02-07T23:21:35.833Z,80.90
2018-02-07T23:24:04.172Z,80.40
2018-02-07T23:26:31.679Z,80.30
2018-02-07T23:28:59.312Z,80.40
2018-02-07T23:31:26.830Z,80.40
2018-02-07T23:33:54.406Z,80.80
2018-02-07T23:36:22.726Z,80.50
2018-02-07T23:38:50.352Z,80.40
2018-02-07T23:41:17.971Z,80.20
2018-02-07T23:43:45.532Z,79.40
2018-02-07T23:46:13.863Z,79.80
2018-02-07T23:48:41.507Z,79.80
2018-02-07T23:51:09.793Z,80.00
2018-02-07T23:53:38.204Z,80.00
2018-02-07T23:56:05.835Z,80.00
2018-02-07T23:58:33.393Z,80.00
